sensor_id;sensor_type;location;lat;lon;timestamp;pressure;altitude;pressure_sealevel;temperature;humidity
29371;BME280;16357;52.188;7.838;2023-04-10T00:01:44;101562.16;;;10.86;44.64
29371;BME280;16357;52.188;7.838;2023-04-10T00:04:11;101564.00;;;10.85;44.49
29371;BME280;16357;52.188;7.838;2023-04-10T00:06:37;101564.13;;;10.84;44.54
29371;BME280;16357;52.188;7.838;2023-04-10T00:09:06;101559.75;;;10.83;44.79
29371;BME280;16357;52.188;7.838;2023-04-10T00:11:32;101559.88;;;10.81;44.98
29371;BME280;16357;52.188;7.838;2023-04-10T00:13:59;101552.94;;;10.79;44.93
29371;BME280;16357;52.188;7.838;2023-04-10T00:16:25;101541.34;;;10.78;45.02
29371;BME280;16357;52.188;7.838;2023-04-10T00:18:52;101542.34;;;10.77;45.00
29371;BME280;16357;52.188;7.838;2023-04-10T00:21:18;101538.13;;;10.74;45.07
29371;BME280;16357;52.188;7.838;2023-04-10T00:23:45;101535.56;;;10.73;45.03
29371;BME280;16357;52.188;7.838;2023-04-10T00:26:11;101537.53;;;10.71;45.09
29371;BME280;16357;52.188;7.838;2023-04-10T00:28:38;101535.00;;;10.69;45.33
29371;BME280;16357;52.188;7.838;2023-04-10T00:31:04;101539.75;;;10.66;45.43
29371;BME280;16357;52.188;7.838;2023-04-10T00:33:31;101538.06;;;10.65;45.52
29371;BME280;16357;52.188;7.838;2023-04-10T00:35:57;101525.78;;;10.62;45.46
29371;BME280;16357;52.188;7.838;2023-04-10T00:38:24;101519.69;;;10.60;45.70
29371;BME280;16357;52.188;7.838;2023-04-10T00:40:50;101520.81;;;10.58;45.51
29371;BME280;16357;52.188;7.838;2023-04-10T00:43:17;101520.09;;;10.55;45.34
29371;BME280;16357;52.188;7.838;2023-04-10T00:45:45;101517.69;;;10.52;45.37
29371;BME280;16357;52.188;7.838;2023-04-10T00:48:14;101511.78;;;10.49;45.79
29371;BME280;16357;52.188;7.838;2023-04-10T00:50:40;101509.22;;;10.47;45.58
29371;BME280;16357;52.188;7.838;2023-04-10T00:53:07;101507.81;;;10.43;45.84
29371;BME280;16357;52.188;7.838;2023-04-10T00:55:33;101516.81;;;10.42;45.74
29371;BME280;16357;52.188;7.838;2023-04-10T00:58:00;101514.41;;;10.39;45.92
29371;BME280;16357;52.188;7.838;2023-04-10T01:00:27;101511.00;;;10.37;46.15
29371;BME280;16357;52.188;7.838;2023-04-10T01:02:54;101504.09;;;10.35;45.99
29371;BME280;16357;52.188;7.838;2023-04-10T01:05:21;101500.72;;;10.32;46.25
29371;BME280;16357;52.188;7.838;2023-04-10T01:15:41;101498.69;;;10.25;46.19
29371;BME280;16357;52.188;7.838;2023-04-10T01:18:18;101496.28;;;10.22;46.19
29371;BME280;16357;52.188;7.838;2023-04-10T01:20:48;101493.84;;;10.19;46.48
29371;BME280;16357;52.188;7.838;2023-04-10T01:23:46;101494.00;;;10.17;46.55
29371;BME280;16357;52.188;7.838;2023-04-10T01:26:31;101501.31;;;10.15;46.27
29371;BME280;16357;52.188;7.838;2023-04-10T01:29:07;101490.72;;;10.14;46.72
29371;BME280;16357;52.188;7.838;2023-04-10T01:32:01;101492.81;;;10.10;46.66
29371;BME280;16357;52.188;7.838;2023-04-10T01:34:43;101494.78;;;10.08;46.66
29371;BME280;16357;52.188;7.838;2023-04-10T01:37:16;101493.94;;;10.07;46.64
29371;BME280;16357;52.188;7.838;2023-04-10T01:39:49;101483.50;;;10.04;46.98
29371;BME280;16357;52.188;7.838;2023-04-10T01:42:18;101495.22;;;10.03;46.94
29371;BME280;16357;52.188;7.838;2023-04-10T01:44:47;101490.81;;;10.02;47.05
29371;BME280;16357;52.188;7.838;2023-04-10T01:47:15;101484.03;;;9.98;47.30
29371;BME280;16357;52.188;7.838;2023-04-10T01:49:46;101484.03;;;9.98;47.01
29371;BME280;16357;52.188;7.838;2023-04-10T01:52:13;101488.69;;;9.96;47.21
29371;BME280;16357;52.188;7.838;2023-04-10T01:54:41;101479.91;;;9.94;47.42
29371;BME280;16357;52.188;7.838;2023-04-10T01:57:10;101480.91;;;9.93;47.44
29371;BME280;16357;52.188;7.838;2023-04-10T01:59:40;101471.31;;;9.91;47.61
29371;BME280;16357;52.188;7.838;2023-04-10T02:02:07;101465.22;;;9.88;47.34
29371;BME280;16357;52.188;7.838;2023-04-10T02:04:37;101465.34;;;9.87;47.85
29371;BME280;16357;52.188;7.838;2023-04-10T02:07:15;101463.66;;;9.86;47.54
29371;BME280;16357;52.188;7.838;2023-04-10T02:10:09;101468.28;;;9.84;47.52
29371;BME280;16357;52.188;7.838;2023-04-10T02:12:50;101463.22;;;9.81;47.48
29371;BME280;16357;52.188;7.838;2023-04-10T02:15:20;101469.69;;;9.78;47.82
29371;BME280;16357;52.188;7.838;2023-04-10T02:17:48;101468.13;;;9.76;47.72
29371;BME280;16357;52.188;7.838;2023-04-10T02:20:15;101472.75;;;9.74;47.76
29371;BME280;16357;52.188;7.838;2023-04-10T02:22:44;101473.03;;;9.71;47.77
29371;BME280;16357;52.188;7.838;2023-04-10T02:25:11;101468.06;;;9.66;48.08
29371;BME280;16357;52.188;7.838;2023-04-10T02:27:38;101462.00;;;9.64;47.80
29371;BME280;16357;52.188;7.838;2023-04-10T02:30:05;101457.03;;;9.59;47.95
29371;BME280;16357;52.188;7.838;2023-04-10T02:32:32;101456.19;;;9.59;48.25
29371;BME280;16357;52.188;7.838;2023-04-10T02:34:59;101467.31;;;9.54;48.57
29371;BME280;16357;52.188;7.838;2023-04-10T02:37:27;101462.34;;;9.50;48.54
29371;BME280;16357;52.188;7.838;2023-04-10T02:39:54;101460.75;;;9.47;48.59
29371;BME280;16357;52.188;7.838;2023-04-10T02:42:20;101461.03;;;9.44;48.78
29371;BME280;16357;52.188;7.838;2023-04-10T02:44:47;101462.25;;;9.40;48.51
29371;BME280;16357;52.188;7.838;2023-04-10T02:47:14;101461.56;;;9.38;48.33
29371;BME280;16357;52.188;7.838;2023-04-10T02:49:41;101463.63;;;9.34;48.83
29371;BME280;16357;52.188;7.838;2023-04-10T02:52:07;101454.19;;;9.30;48.75
29371;BME280;16357;52.188;7.838;2023-04-10T02:54:34;101462.34;;;9.29;48.87
29371;BME280;16357;52.188;7.838;2023-04-10T02:57:01;101453.72;;;9.25;48.79
29371;BME280;16357;52.188;7.838;2023-04-10T02:59:27;101456.66;;;9.22;49.12
29371;BME280;16357;52.188;7.838;2023-04-10T03:01:54;101453.25;;;9.20;49.03
29371;BME280;16357;52.188;7.838;2023-04-10T03:04:20;101450.00;;;9.16;49.03
29371;BME280;16357;52.188;7.838;2023-04-10T03:06:47;101446.59;;;9.14;48.89
29371;BME280;16357;52.188;7.838;2023-04-10T03:09:13;101443.31;;;9.11;49.34
29371;BME280;16357;52.188;7.838;2023-04-10T03:11:40;101439.06;;;9.08;49.20
29371;BME280;16357;52.188;7.838;2023-04-10T03:14:07;101441.06;;;9.06;49.46
29371;BME280;16357;52.188;7.838;2023-04-10T03:16:35;101431.47;;;9.04;49.60
29371;BME280;16357;52.188;7.838;2023-04-10T03:19:01;101432.56;;;9.01;49.32
29371;BME280;16357;52.188;7.838;2023-04-10T03:21:28;101428.16;;;9.00;49.65
29371;BME280;16357;52.188;7.838;2023-04-10T03:23:55;101429.41;;;8.96;49.70
29371;BME280;16357;52.188;7.838;2023-04-10T03:26:22;101429.53;;;8.94;49.82
29371;BME280;16357;52.188;7.838;2023-04-10T03:28:49;101426.28;;;8.91;49.44
29371;BME280;16357;52.188;7.838;2023-04-10T03:31:16;101424.56;;;8.90;49.42
29371;BME280;16357;52.188;7.838;2023-04-10T03:33:43;101420.31;;;8.87;49.93
29371;BME280;16357;52.188;7.838;2023-04-10T03:36:09;101420.47;;;8.86;49.82
29371;BME280;16357;52.188;7.838;2023-04-10T03:38:36;101423.41;;;8.83;49.60
29371;BME280;16357;52.188;7.838;2023-04-10T03:41:03;101425.34;;;8.81;49.92
29371;BME280;16357;52.188;7.838;2023-04-10T03:43:29;101418.31;;;8.79;49.75
29371;BME280;16357;52.188;7.838;2023-04-10T03:45:56;101416.59;;;8.78;49.69
29371;BME280;16357;52.188;7.838;2023-04-10T03:48:23;101410.53;;;8.76;50.05
29371;BME280;16357;52.188;7.838;2023-04-10T03:50:53;101415.88;;;8.76;49.93
29371;BME280;16357;52.188;7.838;2023-04-10T03:53:20;101411.78;;;8.72;50.36
29371;BME280;16357;52.188;7.838;2023-04-10T03:55:47;101417.13;;;8.72;49.88
29371;BME280;16357;52.188;7.838;2023-04-10T03:58:13;101416.28;;;8.72;50.23
29371;BME280;16357;52.188;7.838;2023-04-10T04:00:40;101425.41;;;8.69;50.13
29371;BME280;16357;52.188;7.838;2023-04-10T04:03:06;101419.31;;;8.67;50.35
29371;BME280;16357;52.188;7.838;2023-04-10T04:05:33;101419.31;;;8.67;50.42
29371;BME280;16357;52.188;7.838;2023-04-10T04:08:00;101415.06;;;8.65;50.10
29371;BME280;16357;52.188;7.838;2023-04-10T04:10:26;101419.59;;;8.64;50.41
29371;BME280;16357;52.188;7.838;2023-04-10T04:12:52;101417.88;;;8.63;50.53
29371;BME280;16357;52.188;7.838;2023-04-10T04:15:19;101423.38;;;8.62;50.41
29371;BME280;16357;52.188;7.838;2023-04-10T04:17:47;101418.13;;;8.60;50.28
29371;BME280;16357;52.188;7.838;2023-04-10T04:20:14;101421.78;;;8.59;50.37
29371;BME280;16357;52.188;7.838;2023-04-10T04:22:41;101418.28;;;8.59;50.35
29371;BME280;16357;52.188;7.838;2023-04-10T04:25:08;101424.72;;;8.56;50.70
29371;BME280;16357;52.188;7.838;2023-04-10T04:27:36;101423.84;;;8.55;50.83
29371;BME280;16357;52.188;7.838;2023-04-10T04:30:03;101423.00;;;8.55;50.84
29371;BME280;16357;52.188;7.838;2023-04-10T04:32:31;101415.25;;;8.52;50.49
29371;BME280;16357;52.188;7.838;2023-04-10T04:34:57;101423.38;;;8.50;50.53
29371;BME280;16357;52.188;7.838;2023-04-10T04:37:24;101420.84;;;8.49;50.48
29371;BME280;16357;52.188;7.838;2023-04-10T04:39:50;101421.84;;;8.48;50.72
29371;BME280;16357;52.188;7.838;2023-04-10T04:42:17;101417.44;;;8.47;50.60
29371;BME280;16357;52.188;7.838;2023-04-10T04:44:43;101425.47;;;8.47;50.71
29371;BME280;16357;52.188;7.838;2023-04-10T04:47:10;101417.44;;;8.47;50.80
29371;BME280;16357;52.188;7.838;2023-04-10T04:49:36;101423.78;;;8.46;50.97
29371;BME280;16357;52.188;7.838;2023-04-10T04:52:03;101420.25;;;8.45;50.65
29371;BME280;16357;52.188;7.838;2023-04-10T04:54:29;101425.59;;;8.45;51.05
29371;BME280;16357;52.188;7.838;2023-04-10T04:56:56;101418.53;;;8.44;50.98
29371;BME280;16357;52.188;7.838;2023-04-10T04:59:23;101422.06;;;8.45;50.94
29371;BME280;16357;52.188;7.838;2023-04-10T05:01:49;101420.25;;;8.45;51.09
29371;BME280;16357;52.188;7.838;2023-04-10T05:04:16;101422.94;;;8.45;50.78
29371;BME280;16357;52.188;7.838;2023-04-10T05:06:42;101421.09;;;8.46;50.83
29371;BME280;16357;52.188;7.838;2023-04-10T05:09:09;101412.25;;;8.45;51.00
29371;BME280;16357;52.188;7.838;2023-04-10T05:11:35;101409.41;;;8.47;51.02
29371;BME280;16357;52.188;7.838;2023-04-10T05:14:02;101403.13;;;8.48;51.32
29371;BME280;16357;52.188;7.838;2023-04-10T05:16:28;101409.31;;;8.48;50.82
29371;BME280;16357;52.188;7.838;2023-04-10T05:18:54;101400.19;;;8.51;51.07
29371;BME280;16357;52.188;7.838;2023-04-10T05:21:21;101403.56;;;8.53;50.96
29371;BME280;16357;52.188;7.838;2023-04-10T05:23:48;101407.69;;;8.57;51.18
29371;BME280;16357;52.188;7.838;2023-04-10T05:26:14;101398.44;;;8.61;50.81
29371;BME280;16357;52.188;7.838;2023-04-10T05:28:40;101405.38;;;8.64;50.93
29371;BME280;16357;52.188;7.838;2023-04-10T05:31:07;101403.13;;;8.69;51.26
29371;BME280;16357;52.188;7.838;2023-04-10T05:33:34;101398.41;;;8.72;51.05
29371;BME280;16357;52.188;7.838;2023-04-10T05:36:01;101405.91;;;8.78;50.93
29371;BME280;16357;52.188;7.838;2023-04-10T05:38:27;101400.06;;;8.85;51.12
29371;BME280;16357;52.188;7.838;2023-04-10T05:40:54;101401.34;;;8.90;50.83
29371;BME280;16357;52.188;7.838;2023-04-10T05:43:20;101405.19;;;8.97;50.74
29371;BME280;16357;52.188;7.838;2023-04-10T05:45:47;101413.56;;;9.04;50.71
29371;BME280;16357;52.188;7.838;2023-04-10T05:48:14;101398.81;;;9.10;50.98
29371;BME280;16357;52.188;7.838;2023-04-10T05:50:40;101400.84;;;9.17;50.93
29371;BME280;16357;52.188;7.838;2023-04-10T05:53:13;101404.53;;;9.26;50.66
29371;BME280;16357;52.188;7.838;2023-04-10T05:55:40;101397.81;;;9.32;50.55
29371;BME280;16357;52.188;7.838;2023-04-10T05:58:06;101397.31;;;9.38;50.47
29371;BME280;16357;52.188;7.838;2023-04-10T06:00:32;101396.75;;;9.44;50.34
29371;BME280;16357;52.188;7.838;2023-04-10T06:02:59;101396.22;;;9.50;50.09
29371;BME280;16357;52.188;7.838;2023-04-10T06:05:26;101396.81;;;9.54;49.89
29371;BME280;16357;52.188;7.838;2023-04-10T06:07:52;101385.69;;;9.58;50.05
29371;BME280;16357;52.188;7.838;2023-04-10T06:10:22;101384.44;;;9.62;49.88
29371;BME280;16357;52.188;7.838;2023-04-10T06:12:48;101385.00;;;9.66;50.00
29371;BME280;16357;52.188;7.838;2023-04-10T06:15:14;101393.66;;;9.70;49.91
29371;BME280;16357;52.188;7.838;2023-04-10T06:17:42;101392.66;;;9.71;49.54
29371;BME280;16357;52.188;7.838;2023-04-10T06:20:11;101387.91;;;9.74;50.00
29371;BME280;16357;52.188;7.838;2023-04-10T06:22:38;101384.06;;;9.77;49.86
29371;BME280;16357;52.188;7.838;2023-04-10T06:25:04;101383.94;;;9.78;49.37
29371;BME280;16357;52.188;7.838;2023-04-10T06:27:32;101381.81;;;9.82;49.87
29371;BME280;16357;52.188;7.838;2023-04-10T06:29:59;101383.25;;;9.86;49.59
29371;BME280;16357;52.188;7.838;2023-04-10T06:32:26;101383.00;;;9.89;49.77
29371;BME280;16357;52.188;7.838;2023-04-10T06:34:52;101377.22;;;9.94;49.67
29371;BME280;16357;52.188;7.838;2023-04-10T06:37:18;101375.81;;;9.99;49.65
29371;BME280;16357;52.188;7.838;2023-04-10T06:39:45;101368.22;;;10.04;49.46
29371;BME280;16357;52.188;7.838;2023-04-10T06:42:11;101364.97;;;10.10;49.76
29371;BME280;16357;52.188;7.838;2023-04-10T06:44:38;101367.13;;;10.17;49.54
29371;BME280;16357;52.188;7.838;2023-04-10T06:47:04;101365.56;;;10.24;49.55
29371;BME280;16357;52.188;7.838;2023-04-10T06:49:32;101366.75;;;10.31;49.57
29371;BME280;16357;52.188;7.838;2023-04-10T06:51:58;101366.91;;;10.39;49.32
29371;BME280;16357;52.188;7.838;2023-04-10T06:54:24;101366.06;;;10.48;49.37
29371;BME280;16357;52.188;7.838;2023-04-10T06:56:51;101358.88;;;10.59;49.29
29371;BME280;16357;52.188;7.838;2023-04-10T06:59:17;101356.16;;;10.68;49.46
29371;BME280;16357;52.188;7.838;2023-04-10T07:01:44;101354.31;;;10.79;49.14
29371;BME280;16357;52.188;7.838;2023-04-10T07:04:10;101355.03;;;10.90;48.72
29371;BME280;16357;52.188;7.838;2023-04-10T07:06:37;101354.72;;;11.03;48.49
29371;BME280;16357;52.188;7.838;2023-04-10T07:09:03;101358.09;;;11.15;48.39
29371;BME280;16357;52.188;7.838;2023-04-10T07:11:29;101351.56;;;11.27;48.58
29371;BME280;16357;52.188;7.838;2023-04-10T07:13:56;101339.78;;;11.38;48.22
29371;BME280;16357;52.188;7.838;2023-04-10T07:16:24;101334.09;;;11.51;47.87
29371;BME280;16357;52.188;7.838;2023-04-10T07:18:51;101331.03;;;11.63;48.01
29371;BME280;16357;52.188;7.838;2023-04-10T07:21:17;101318.25;;;11.75;47.85
29371;BME280;16357;52.188;7.838;2023-04-10T07:23:44;101324.16;;;11.89;47.52
29371;BME280;16357;52.188;7.838;2023-04-10T07:26:10;101310.34;;;12.01;47.43
29371;BME280;16357;52.188;7.838;2023-04-10T07:28:36;101318.06;;;12.14;47.17
29371;BME280;16357;52.188;7.838;2023-04-10T07:31:03;101306.75;;;12.28;46.94
29371;BME280;16357;52.188;7.838;2023-04-10T07:33:29;101295.47;;;12.43;47.03
29371;BME280;16357;52.188;7.838;2023-04-10T07:35:56;101299.44;;;12.57;46.82
29371;BME280;16357;52.188;7.838;2023-04-10T07:38:23;101292.50;;;12.72;46.28
29371;BME280;16357;52.188;7.838;2023-04-10T07:40:57;101305.91;;;12.90;46.57
29371;BME280;16357;52.188;7.838;2023-04-10T07:43:24;101297.97;;;13.06;46.53
29371;BME280;16357;52.188;7.838;2023-04-10T07:45:51;101301.44;;;13.25;46.28
29371;BME280;16357;52.188;7.838;2023-04-10T07:48:18;101294.81;;;13.45;45.93
29371;BME280;16357;52.188;7.838;2023-04-10T07:50:44;101291.88;;;13.65;45.55
29371;BME280;16357;52.188;7.838;2023-04-10T07:53:11;101286.88;;;13.86;45.20
29371;BME280;16357;52.188;7.838;2023-04-10T07:55:41;101283.88;;;14.05;44.43
29371;BME280;16357;52.188;7.838;2023-04-10T07:58:08;101282.56;;;14.26;44.03
29371;BME280;16357;52.188;7.838;2023-04-10T08:00:35;101275.16;;;14.44;43.82
29371;BME280;16357;52.188;7.838;2023-04-10T08:03:05;101276.53;;;14.65;43.43
29371;BME280;16357;52.188;7.838;2023-04-10T08:05:32;101269.22;;;14.82;42.64
29371;BME280;16357;52.188;7.838;2023-04-10T08:07:59;101262.97;;;14.98;42.22
29371;BME280;16357;52.188;7.838;2023-04-10T08:10:25;101260.41;;;15.12;41.88
29371;BME280;16357;52.188;7.838;2023-04-10T08:12:52;101258.00;;;15.26;41.73
29371;BME280;16357;52.188;7.838;2023-04-10T08:15:18;101250.50;;;15.36;41.21
29371;BME280;16357;52.188;7.838;2023-04-10T08:17:45;101250.31;;;15.46;41.07
29371;BME280;16357;52.188;7.838;2023-04-10T08:20:12;101242.16;;;15.54;40.67
29371;BME280;16357;52.188;7.838;2023-04-10T08:22:39;101231.47;;;15.61;40.67
29371;BME280;16357;52.188;7.838;2023-04-10T08:25:05;101231.59;;;15.67;40.37
29371;BME280;16357;52.188;7.838;2023-04-10T08:27:32;101225.50;;;15.73;40.14
29371;BME280;16357;52.188;7.838;2023-04-10T08:29:58;101217.69;;;15.78;39.88
29371;BME280;16357;52.188;7.838;2023-04-10T08:32:27;101211.56;;;15.85;40.17
29371;BME280;16357;52.188;7.838;2023-04-10T08:34:53;101214.78;;;15.88;39.77
29371;BME280;16357;52.188;7.838;2023-04-10T08:37:19;101201.72;;;15.92;39.59
29371;BME280;16357;52.188;7.838;2023-04-10T08:39:46;101203.88;;;15.96;39.50
29371;BME280;16357;52.188;7.838;2023-04-10T08:42:12;101200.97;;;15.98;39.74
29371;BME280;16357;52.188;7.838;2023-04-10T08:44:39;101197.28;;;15.99;39.37
29371;BME280;16357;52.188;7.838;2023-04-10T08:47:07;101192.69;;;15.99;39.13
29371;BME280;16357;52.188;7.838;2023-04-10T08:49:40;101190.66;;;16.01;39.45
29371;BME280;16357;52.188;7.838;2023-04-10T08:52:14;101192.31;;;16.02;38.95
29371;BME280;16357;52.188;7.838;2023-04-10T08:54:47;101190.28;;;16.05;39.36
29371;BME280;16357;52.188;7.838;2023-04-10T08:57:14;101179.28;;;16.06;39.00
29371;BME280;16357;52.188;7.838;2023-04-10T08:59:47;101184.34;;;16.09;38.77
29371;BME280;16357;52.188;7.838;2023-04-10T09:02:14;101174.16;;;16.11;38.77
29371;BME280;16357;52.188;7.838;2023-04-10T09:04:46;101171.75;;;16.16;39.27
29371;BME280;16357;52.188;7.838;2023-04-10T09:07:14;101166.81;;;16.20;38.79
29371;BME280;16357;52.188;7.838;2023-04-10T09:09:41;101172.31;;;16.27;39.08
29371;BME280;16357;52.188;7.838;2023-04-10T09:12:08;101167.03;;;16.33;38.91
29371;BME280;16357;52.188;7.838;2023-04-10T09:14:36;101154.25;;;16.42;38.90
29371;BME280;16357;52.188;7.838;2023-04-10T09:17:18;101150.25;;;16.53;38.69
29371;BME280;16357;52.188;7.838;2023-04-10T09:19:47;101144.56;;;16.62;38.63
29371;BME280;16357;52.188;7.838;2023-04-10T09:22:15;101135.28;;;16.72;38.17
29371;BME280;16357;52.188;7.838;2023-04-10T09:24:44;101134.22;;;16.81;37.76
29371;BME280;16357;52.188;7.838;2023-04-10T09:27:30;101128.97;;;16.94;38.56
29371;BME280;16357;52.188;7.838;2023-04-10T09:29:57;101128.88;;;17.02;37.95
29371;BME280;16357;52.188;7.838;2023-04-10T09:32:39;101121.09;;;17.14;38.02
29371;BME280;16357;52.188;7.838;2023-04-10T09:35:08;101116.41;;;17.23;36.94
29371;BME280;16357;52.188;7.838;2023-04-10T09:37:35;101105.44;;;17.31;36.88
29371;BME280;16357;52.188;7.838;2023-04-10T09:40:02;101109.69;;;17.40;36.68
29371;BME280;16357;52.188;7.838;2023-04-10T09:42:34;101102.09;;;17.50;36.71
29371;BME280;16357;52.188;7.838;2023-04-10T09:45:03;101095.69;;;17.58;36.62
29371;BME280;16357;52.188;7.838;2023-04-10T09:47:29;101091.63;;;17.69;36.49
29371;BME280;16357;52.188;7.838;2023-04-10T09:49:57;101091.47;;;17.77;36.18
29371;BME280;16357;52.188;7.838;2023-04-10T09:52:29;101088.28;;;17.88;36.34
29371;BME280;16357;52.188;7.838;2023-04-10T09:54:58;101083.16;;;18.00;36.84
29371;BME280;16357;52.188;7.838;2023-04-10T09:57:28;101084.47;;;18.11;36.19
29371;BME280;16357;52.188;7.838;2023-04-10T09:59:56;101072.88;;;18.24;35.45
29371;BME280;16357;52.188;7.838;2023-04-10T10:02:24;101071.06;;;18.37;35.89
29371;BME280;16357;52.188;7.838;2023-04-10T10:04:51;101071.78;;;18.46;35.10
29371;BME280;16357;52.188;7.838;2023-04-10T10:07:20;101074.75;;;18.58;34.71
29371;BME280;16357;52.188;7.838;2023-04-10T10:09:48;101068.72;;;18.69;34.77
29371;BME280;16357;52.188;7.838;2023-04-10T10:12:18;101060.06;;;18.80;34.44
29371;BME280;16357;52.188;7.838;2023-04-10T10:18:03;101047.81;;;19.11;34.46
29371;BME280;16357;52.188;7.838;2023-04-10T10:20:33;101052.66;;;19.22;33.54
29371;BME280;16357;52.188;7.838;2023-04-10T10:23:02;101042.84;;;19.35;32.72
29371;BME280;16357;52.188;7.838;2023-04-10T10:25:30;101035.34;;;19.43;32.83
29371;BME280;16357;52.188;7.838;2023-04-10T10:27:58;101026.97;;;19.51;32.74
29371;BME280;16357;52.188;7.838;2023-04-10T10:30:25;101034.47;;;19.56;32.53
29371;BME280;16357;52.188;7.838;2023-04-10T10:32:57;101028.22;;;19.62;32.56
29371;BME280;16357;52.188;7.838;2023-04-10T10:35:25;101021.31;;;19.66;32.11
29371;BME280;16357;52.188;7.838;2023-04-10T10:37:57;101022.16;;;19.73;32.08
29371;BME280;16357;52.188;7.838;2023-04-10T10:40:31;101020.28;;;19.81;32.29
29371;BME280;16357;52.188;7.838;2023-04-10T10:45:53;100997.66;;;19.93;32.45
29371;BME280;16357;52.188;7.838;2023-04-10T10:48:24;100995.75;;;20.01;31.96
29371;BME280;16357;52.188;7.838;2023-04-10T10:50:55;100990.50;;;20.06;31.95
29371;BME280;16357;52.188;7.838;2023-04-10T10:53:33;100986.94;;;20.12;32.06
29371;BME280;16357;52.188;7.838;2023-04-10T10:58:53;100959.84;;;20.24;31.33
29371;BME280;16357;52.188;7.838;2023-04-10T11:01:22;100958.97;;;20.30;31.57
29371;BME280;16357;52.188;7.838;2023-04-10T11:03:49;100953.72;;;20.35;30.86
29371;BME280;16357;52.188;7.838;2023-04-10T11:06:20;100950.16;;;20.41;31.36
29371;BME280;16357;52.188;7.838;2023-04-10T11:08:51;100941.94;;;20.48;30.98
29371;BME280;16357;52.188;7.838;2023-04-10T11:11:22;100946.75;;;20.52;30.49
29371;BME280;16357;52.188;7.838;2023-04-10T11:16:15;100935.41;;;20.62;30.48
29371;BME280;16357;52.188;7.838;2023-04-10T11:21:12;100923.59;;;20.75;30.17
29371;BME280;16357;52.188;7.838;2023-04-10T11:31:55;100906.06;;;20.96;30.93
29371;BME280;16357;52.188;7.838;2023-04-10T11:34:23;100897.19;;;21.00;30.18
29371;BME280;16357;52.188;7.838;2023-04-10T11:36:49;100891.69;;;21.07;29.78
29371;BME280;16357;52.188;7.838;2023-04-10T11:39:16;100876.94;;;21.15;29.85
29371;BME280;16357;52.188;7.838;2023-04-10T11:41:45;100882.09;;;21.23;29.97
29371;BME280;16357;52.188;7.838;2023-04-10T11:44:15;100872.81;;;21.31;29.75
29371;BME280;16357;52.188;7.838;2023-04-10T11:46:44;100857.22;;;21.38;29.89
29371;BME280;16357;52.188;7.838;2023-04-10T11:49:20;100873.53;;;21.44;29.16
29371;BME280;16357;52.188;7.838;2023-04-10T11:51:49;100856.25;;;21.51;29.38
29371;BME280;16357;52.188;7.838;2023-04-10T11:56:45;100842.28;;;21.59;28.72
29371;BME280;16357;52.188;7.838;2023-04-10T11:59:19;100839.72;;;21.64;28.66
29371;BME280;16357;52.188;7.838;2023-04-10T12:01:46;100830.03;;;21.68;28.09
29371;BME280;16357;52.188;7.838;2023-04-10T12:04:17;100826.63;;;21.73;28.68
29371;BME280;16357;52.188;7.838;2023-04-10T12:06:51;100822.34;;;21.77;28.68
29371;BME280;16357;52.188;7.838;2023-04-10T12:09:20;100821.91;;;21.80;28.34
29371;BME280;16357;52.188;7.838;2023-04-10T12:11:51;100830.22;;;21.85;28.44
29371;BME280;16357;52.188;7.838;2023-04-10T12:14:20;100814.47;;;21.87;27.31
29371;BME280;16357;52.188;7.838;2023-04-10T12:16:48;100821.34;;;21.89;26.90
29371;BME280;16357;52.188;7.838;2023-04-10T12:19:16;100824.69;;;21.91;27.12
29371;BME280;16357;52.188;7.838;2023-04-10T12:21:44;100821.72;;;21.93;26.63
29371;BME280;16357;52.188;7.838;2023-04-10T12:24:11;100806.56;;;21.97;26.37
29371;BME280;16357;52.188;7.838;2023-04-10T12:26:46;100807.53;;;22.03;26.83
29371;BME280;16357;52.188;7.838;2023-04-10T12:29:12;100794.22;;;22.06;26.47
29371;BME280;16357;52.188;7.838;2023-04-10T12:31:39;100786.19;;;22.11;26.62
29371;BME280;16357;52.188;7.838;2023-04-10T12:34:06;100787.38;;;22.16;26.63
29371;BME280;16357;52.188;7.838;2023-04-10T12:36:35;100787.34;;;22.22;25.68
29371;BME280;16357;52.188;7.838;2023-04-10T12:39:03;100770.22;;;22.27;25.64
29371;BME280;16357;52.188;7.838;2023-04-10T12:41:32;100768.44;;;22.32;25.93
29371;BME280;16357;52.188;7.838;2023-04-10T12:44:10;100774.91;;;22.38;26.27
29371;BME280;16357;52.188;7.838;2023-04-10T12:46:37;100768.72;;;22.43;25.35
29371;BME280;16357;52.188;7.838;2023-04-10T12:49:14;100765.06;;;22.49;25.69
29371;BME280;16357;52.188;7.838;2023-04-10T12:51:48;100759.13;;;22.52;25.53
29371;BME280;16357;52.188;7.838;2023-04-10T12:54:31;100736.78;;;22.55;25.80
29371;BME280;16357;52.188;7.838;2023-04-10T12:56:59;100739.28;;;22.56;24.91
29371;BME280;16357;52.188;7.838;2023-04-10T12:59:26;100734.16;;;22.60;24.88
29371;BME280;16357;52.188;7.838;2023-04-10T13:01:53;100727.75;;;22.66;25.07
29371;BME280;16357;52.188;7.838;2023-04-10T13:04:20;100730.59;;;22.71;24.11
29371;BME280;16357;52.188;7.838;2023-04-10T13:06:47;100721.44;;;22.77;24.52
29371;BME280;16357;52.188;7.838;2023-04-10T13:09:14;100720.50;;;22.84;24.58
29371;BME280;16357;52.188;7.838;2023-04-10T13:11:41;100723.97;;;22.91;24.92
29371;BME280;16357;52.188;7.838;2023-04-10T13:14:09;100708.25;;;22.98;24.99
29371;BME280;16357;52.188;7.838;2023-04-10T13:16:36;100708.50;;;23.08;24.54
29371;BME280;16357;52.188;7.838;2023-04-10T13:19:03;100693.84;;;23.14;23.85
29371;BME280;16357;52.188;7.838;2023-04-10T13:21:29;100682.16;;;23.19;23.56
29371;BME280;16357;52.188;7.838;2023-04-10T13:23:56;100680.03;;;23.21;24.01
29371;BME280;16357;52.188;7.838;2023-04-10T13:26:23;100663.59;;;23.21;24.04
29371;BME280;16357;52.188;7.838;2023-04-10T13:28:49;100672.06;;;23.19;24.43
29371;BME280;16357;52.188;7.838;2023-04-10T13:31:16;100645.75;;;23.18;24.07